sensor_id;sensor_type;location;lat;lon;timestamp;temperature;humidity
62339;DHT22;48368;53.406;6.214;2023-05-14T00:00:53;11.40;99.90
62339;DHT22;48368;53.406;6.214;2023-05-14T00:03:19;11.40;99.90
62339;DHT22;48368;53.406;6.214;2023-05-14T00:05:45;11.40;99.90
62339;DHT22;48368;53.406;6.214;2023-05-14T00:08:10;11.40;99.90
62339;DHT22;48368;53.406;6.214;2023-05-14T00:10:36;11.40;99.90
62339;DHT22;48368;53.406;6.214;2023-05-14T00:13:01;11.40;99.90
62339;DHT22;48368;53.406;6.214;2023-05-14T00:15:27;11.40;99.90
62339;DHT22;48368;53.406;6.214;2023-05-14T00:17:53;11.40;99.90
62339;DHT22;48368;53.406;6.214;2023-05-14T00:20:18;11.40;99.90
62339;DHT22;48368;53.406;6.214;2023-05-14T00:22:44;11.40;99.90
62339;DHT22;48368;53.406;6.214;2023-05-14T00:25:10;11.40;99.90
62339;DHT22;48368;53.406;6.214;2023-05-14T00:27:37;11.40;99.90
62339;DHT22;48368;53.406;6.214;2023-05-14T00:30:04;11.40;99.90
62339;DHT22;48368;53.406;6.214;2023-05-14T00:32:31;11.30;99.90
62339;DHT22;48368;53.406;6.214;2023-05-14T00:34:57;11.30;99.90
62339;DHT22;48368;53.406;6.214;2023-05-14T00:37:23;11.30;99.90
62339;DHT22;48368;53.406;6.214;2023-05-14T00:39:48;11.40;99.90
62339;DHT22;48368;53.406;6.214;2023-05-14T00:42:14;11.30;99.90
62339;DHT22;48368;53.406;6.214;2023-05-14T00:44:40;11.40;99.90
62339;DHT22;48368;53.406;6.214;2023-05-14T00:47:05;11.40;99.90
62339;DHT22;48368;53.406;6.214;2023-05-14T00:49:31;11.40;99.90
62339;DHT22;48368;53.406;6.214;2023-05-14T00:51:57;11.40;99.90
62339;DHT22;48368;53.406;6.214;2023-05-14T00:54:25;11.40;99.90
62339;DHT22;48368;53.406;6.214;2023-05-14T00:56:52;11.40;99.90
62339;DHT22;48368;53.406;6.214;2023-05-14T00:59:18;11.40;99.90
62339;DHT22;48368;53.406;6.214;2023-05-14T01:01:43;11.40;99.90
62339;DHT22;48368;53.406;6.214;2023-05-14T01:04:10;11.40;99.90
62339;DHT22;48368;53.406;6.214;2023-05-14T01:09:31;11.50;99.90
62339;DHT22;48368;53.406;6.214;2023-05-14T01:13:07;11.60;99.90
62339;DHT22;48368;53.406;6.214;2023-05-14T01:15:07;11.60;99.90
62339;DHT22;48368;53.406;6.214;2023-05-14T01:17:42;11.60;99.90
62339;DHT22;48368;53.406;6.214;2023-05-14T01:20:10;11.60;99.90
62339;DHT22;48368;53.406;6.214;2023-05-14T01:22:36;11.50;99.90
62339;DHT22;48368;53.406;6.214;2023-05-14T01:25:03;11.60;99.90
62339;DHT22;48368;53.406;6.214;2023-05-14T01:27:37;11.50;99.90
62339;DHT22;48368;53.406;6.214;2023-05-14T01:30:22;11.60;99.90
62339;DHT22;48368;53.406;6.214;2023-05-14T01:32:54;11.60;99.90
62339;DHT22;48368;53.406;6.214;2023-05-14T01:35:27;11.50;99.90
62339;DHT22;48368;53.406;6.214;2023-05-14T01:37:56;11.50;99.90
62339;DHT22;48368;53.406;6.214;2023-05-14T01:40:23;11.50;99.90
62339;DHT22;48368;53.406;6.214;2023-05-14T01:42:49;11.40;99.90
62339;DHT22;48368;53.406;6.214;2023-05-14T01:45:22;11.40;99.90
62339;DHT22;48368;53.406;6.214;2023-05-14T01:47:49;11.40;99.90
62339;DHT22;48368;53.406;6.214;2023-05-14T01:50:15;11.40;99.90
62339;DHT22;48368;53.406;6.214;2023-05-14T01:52:41;11.40;99.90
62339;DHT22;48368;53.406;6.214;2023-05-14T01:55:07;11.40;99.90
62339;DHT22;48368;53.406;6.214;2023-05-14T01:57:33;11.40;99.90
62339;DHT22;48368;53.406;6.214;2023-05-14T01:59:58;11.30;99.90
62339;DHT22;48368;53.406;6.214;2023-05-14T02:02:24;11.40;99.90
62339;DHT22;48368;53.406;6.214;2023-05-14T02:04:50;11.30;99.90
62339;DHT22;48368;53.406;6.214;2023-05-14T02:07:15;11.30;99.90
62339;DHT22;48368;53.406;6.214;2023-05-14T02:09:41;11.30;99.90
62339;DHT22;48368;53.406;6.214;2023-05-14T02:12:08;11.30;99.90
62339;DHT22;48368;53.406;6.214;2023-05-14T02:14:33;11.30;99.90
62339;DHT22;48368;53.406;6.214;2023-05-14T02:16:59;11.30;99.90
62339;DHT22;48368;53.406;6.214;2023-05-14T02:19:25;11.30;99.90
62339;DHT22;48368;53.406;6.214;2023-05-14T02:21:50;11.20;99.90
62339;DHT22;48368;53.406;6.214;2023-05-14T02:24:16;11.20;99.90
62339;DHT22;48368;53.406;6.214;2023-05-14T02:26:42;11.10;99.90
62339;DHT22;48368;53.406;6.214;2023-05-14T02:29:08;11.10;99.90
62339;DHT22;48368;53.406;6.214;2023-05-14T02:31:33;11.20;99.90
62339;DHT22;48368;53.406;6.214;2023-05-14T02:34:02;11.10;99.90
62339;DHT22;48368;53.406;6.214;2023-05-14T02:36:28;11.20;99.90
62339;DHT22;48368;53.406;6.214;2023-05-14T02:38:54;11.20;99.90
62339;DHT22;48368;53.406;6.214;2023-05-14T02:41:20;11.20;99.90
62339;DHT22;48368;53.406;6.214;2023-05-14T02:43:46;11.20;99.90
62339;DHT22;48368;53.406;6.214;2023-05-14T02:46:11;11.30;99.90
62339;DHT22;48368;53.406;6.214;2023-05-14T02:48:37;11.30;99.90
62339;DHT22;48368;53.406;6.214;2023-05-14T02:51:03;11.30;99.90
62339;DHT22;48368;53.406;6.214;2023-05-14T02:53:29;11.30;99.90
62339;DHT22;48368;53.406;6.214;2023-05-14T02:55:54;11.40;99.90
62339;DHT22;48368;53.406;6.214;2023-05-14T02:58:20;11.30;99.90
62339;DHT22;48368;53.406;6.214;2023-05-14T03:00:46;11.30;99.90
62339;DHT22;48368;53.406;6.214;2023-05-14T03:03:11;11.40;99.90
62339;DHT22;48368;53.406;6.214;2023-05-14T03:05:37;11.50;99.90
62339;DHT22;48368;53.406;6.214;2023-05-14T03:08:03;11.50;99.90
62339;DHT22;48368;53.406;6.214;2023-05-14T03:10:28;11.50;99.90
62339;DHT22;48368;53.406;6.214;2023-05-14T03:12:54;11.50;99.90
62339;DHT22;48368;53.406;6.214;2023-05-14T03:15:20;11.50;99.90
62339;DHT22;48368;53.406;6.214;2023-05-14T03:17:45;11.50;99.90
62339;DHT22;48368;53.406;6.214;2023-05-14T03:20:11;11.40;99.90
62339;DHT22;48368;53.406;6.214;2023-05-14T03:22:37;11.50;99.90
62339;DHT22;48368;53.406;6.214;2023-05-14T03:25:03;11.50;99.90
62339;DHT22;48368;53.406;6.214;2023-05-14T03:27:32;11.50;99.90
62339;DHT22;48368;53.406;6.214;2023-05-14T03:30:01;11.50;99.90
62339;DHT22;48368;53.406;6.214;2023-05-14T03:32:27;11.50;99.90
62339;DHT22;48368;53.406;6.214;2023-05-14T03:34:53;11.50;99.90
62339;DHT22;48368;53.406;6.214;2023-05-14T03:37:18;11.50;99.90
62339;DHT22;48368;53.406;6.214;2023-05-14T03:39:44;11.40;99.90
62339;DHT22;48368;53.406;6.214;2023-05-14T03:42:10;11.40;99.90
62339;DHT22;48368;53.406;6.214;2023-05-14T03:44:35;11.50;99.90
62339;DHT22;48368;53.406;6.214;2023-05-14T03:47:01;11.50;99.90
62339;DHT22;48368;53.406;6.214;2023-05-14T03:49:26;11.40;99.90
62339;DHT22;48368;53.406;6.214;2023-05-14T03:51:52;11.50;99.90
62339;DHT22;48368;53.406;6.214;2023-05-14T03:54:18;11.50;99.90
62339;DHT22;48368;53.406;6.214;2023-05-14T03:56:43;11.50;99.90
62339;DHT22;48368;53.406;6.214;2023-05-14T03:59:10;11.30;99.90
62339;DHT22;48368;53.406;6.214;2023-05-14T04:01:35;11.30;99.90
62339;DHT22;48368;53.406;6.214;2023-05-14T04:04:01;11.30;99.90
62339;DHT22;48368;53.406;6.214;2023-05-14T04:06:27;11.20;99.90
62339;DHT22;48368;53.406;6.214;2023-05-14T04:08:52;11.20;99.90
62339;DHT22;48368;53.406;6.214;2023-05-14T04:11:18;11.10;99.90
62339;DHT22;48368;53.406;6.214;2023-05-14T04:13:44;11.20;99.90
62339;DHT22;48368;53.406;6.214;2023-05-14T04:16:09;11.20;99.90
62339;DHT22;48368;53.406;6.214;2023-05-14T04:18:35;11.20;99.90
62339;DHT22;48368;53.406;6.214;2023-05-14T04:21:01;11.30;99.90
62339;DHT22;48368;53.406;6.214;2023-05-14T04:23:27;11.30;99.90
62339;DHT22;48368;53.406;6.214;2023-05-14T04:25:53;11.30;99.90
62339;DHT22;48368;53.406;6.214;2023-05-14T04:28:19;11.40;99.90
62339;DHT22;48368;53.406;6.214;2023-05-14T04:30:45;11.50;99.90
62339;DHT22;48368;53.406;6.214;2023-05-14T04:33:12;11.50;99.90
62339;DHT22;48368;53.406;6.214;2023-05-14T04:35:38;11.60;99.90
62339;DHT22;48368;53.406;6.214;2023-05-14T04:38:03;11.60;99.90
62339;DHT22;48368;53.406;6.214;2023-05-14T04:40:29;11.70;99.90
62339;DHT22;48368;53.406;6.214;2023-05-14T04:42:56;11.80;99.90
62339;DHT22;48368;53.406;6.214;2023-05-14T04:45:22;11.80;99.90
62339;DHT22;48368;53.406;6.214;2023-05-14T04:47:48;11.80;99.90
62339;DHT22;48368;53.406;6.214;2023-05-14T04:50:14;11.90;99.90
62339;DHT22;48368;53.406;6.214;2023-05-14T04:52:39;11.90;99.90
62339;DHT22;48368;53.406;6.214;2023-05-14T04:55:05;11.90;99.90
62339;DHT22;48368;53.406;6.214;2023-05-14T04:57:31;11.90;99.90
62339;DHT22;48368;53.406;6.214;2023-05-14T04:59:57;11.90;99.90
62339;DHT22;48368;53.406;6.214;2023-05-14T05:02:22;12.00;99.90
62339;DHT22;48368;53.406;6.214;2023-05-14T05:04:48;12.00;99.90
62339;DHT22;48368;53.406;6.214;2023-05-14T05:07:13;12.00;99.90
62339;DHT22;48368;53.406;6.214;2023-05-14T05:09:39;12.00;99.90
62339;DHT22;48368;53.406;6.214;2023-05-14T05:12:05;11.90;99.90
62339;DHT22;48368;53.406;6.214;2023-05-14T05:14:31;11.90;99.90
62339;DHT22;48368;53.406;6.214;2023-05-14T05:16:57;12.00;99.90
62339;DHT22;48368;53.406;6.214;2023-05-14T05:19:22;12.00;99.90
62339;DHT22;48368;53.406;6.214;2023-05-14T05:21:48;11.90;99.90
62339;DHT22;48368;53.406;6.214;2023-05-14T05:24:14;12.00;99.90
62339;DHT22;48368;53.406;6.214;2023-05-14T05:26:39;12.00;99.90
62339;DHT22;48368;53.406;6.214;2023-05-14T05:29:08;12.00;99.90
62339;DHT22;48368;53.406;6.214;2023-05-14T05:31:36;12.00;99.90
62339;DHT22;48368;53.406;6.214;2023-05-14T05:34:02;12.00;99.90
62339;DHT22;48368;53.406;6.214;2023-05-14T05:36:28;12.00;99.90
62339;DHT22;48368;53.406;6.214;2023-05-14T05:38:54;11.90;99.90
62339;DHT22;48368;53.406;6.214;2023-05-14T05:41:19;12.00;99.90
62339;DHT22;48368;53.406;6.214;2023-05-14T05:43:45;12.00;99.90
62339;DHT22;48368;53.406;6.214;2023-05-14T05:46:11;12.00;99.90
62339;DHT22;48368;53.406;6.214;2023-05-14T05:48:36;12.00;99.90
62339;DHT22;48368;53.406;6.214;2023-05-14T05:51:02;12.00;99.90
62339;DHT22;48368;53.406;6.214;2023-05-14T05:53:28;12.10;99.90
62339;DHT22;48368;53.406;6.214;2023-05-14T05:55:53;12.20;99.90
62339;DHT22;48368;53.406;6.214;2023-05-14T05:58:19;12.20;99.90
62339;DHT22;48368;53.406;6.214;2023-05-14T06:00:45;12.10;99.90
62339;DHT22;48368;53.406;6.214;2023-05-14T06:03:12;12.00;99.90
62339;DHT22;48368;53.406;6.214;2023-05-14T06:05:37;12.20;99.90
62339;DHT22;48368;53.406;6.214;2023-05-14T06:08:04;12.20;99.90
62339;DHT22;48368;53.406;6.214;2023-05-14T06:10:30;12.30;99.90
62339;DHT22;48368;53.406;6.214;2023-05-14T06:12:56;12.30;99.90
62339;DHT22;48368;53.406;6.214;2023-05-14T06:15:22;12.20;99.90
62339;DHT22;48368;53.406;6.214;2023-05-14T06:17:47;12.20;99.90
62339;DHT22;48368;53.406;6.214;2023-05-14T06:20:13;12.30;99.90
62339;DHT22;48368;53.406;6.214;2023-05-14T06:22:39;12.40;99.90
62339;DHT22;48368;53.406;6.214;2023-05-14T06:25:05;12.60;99.90
62339;DHT22;48368;53.406;6.214;2023-05-14T06:27:30;12.50;99.90
62339;DHT22;48368;53.406;6.214;2023-05-14T06:29:56;12.60;99.90
62339;DHT22;48368;53.406;6.214;2023-05-14T06:32:22;12.70;99.90
62339;DHT22;48368;53.406;6.214;2023-05-14T06:34:48;12.70;99.90
62339;DHT22;48368;53.406;6.214;2023-05-14T06:37:13;12.80;99.90
62339;DHT22;48368;53.406;6.214;2023-05-14T06:39:39;12.80;99.90
62339;DHT22;48368;53.406;6.214;2023-05-14T06:42:10;12.80;99.90
62339;DHT22;48368;53.406;6.214;2023-05-14T06:44:36;12.80;99.90
62339;DHT22;48368;53.406;6.214;2023-05-14T06:47:02;12.90;99.90
62339;DHT22;48368;53.406;6.214;2023-05-14T06:49:27;12.90;99.90
62339;DHT22;48368;53.406;6.214;2023-05-14T06:51:53;12.90;99.90
62339;DHT22;48368;53.406;6.214;2023-05-14T06:54:19;13.00;99.90
62339;DHT22;48368;53.406;6.214;2023-05-14T06:56:45;13.00;99.90
62339;DHT22;48368;53.406;6.214;2023-05-14T06:59:11;13.00;99.90
62339;DHT22;48368;53.406;6.214;2023-05-14T07:01:36;13.00;99.90
62339;DHT22;48368;53.406;6.214;2023-05-14T07:04:02;12.90;99.90
62339;DHT22;48368;53.406;6.214;2023-05-14T07:06:27;13.00;99.90
62339;DHT22;48368;53.406;6.214;2023-05-14T07:08:53;13.10;99.90
62339;DHT22;48368;53.406;6.214;2023-05-14T07:11:19;13.20;99.90
62339;DHT22;48368;53.406;6.214;2023-05-14T07:13:46;13.50;99.90
62339;DHT22;48368;53.406;6.214;2023-05-14T07:16:12;13.70;99.90
62339;DHT22;48368;53.406;6.214;2023-05-14T07:18:37;13.90;99.90
62339;DHT22;48368;53.406;6.214;2023-05-14T07:21:03;14.00;99.90
62339;DHT22;48368;53.406;6.214;2023-05-14T07:23:32;14.10;99.90
62339;DHT22;48368;53.406;6.214;2023-05-14T07:26:01;14.10;99.90
62339;DHT22;48368;53.406;6.214;2023-05-14T07:28:26;14.20;99.90
62339;DHT22;48368;53.406;6.214;2023-05-14T07:30:52;14.30;99.90
62339;DHT22;48368;53.406;6.214;2023-05-14T07:33:18;14.40;99.90
62339;DHT22;48368;53.406;6.214;2023-05-14T07:35:44;14.50;99.90
62339;DHT22;48368;53.406;6.214;2023-05-14T07:38:09;14.70;99.90
62339;DHT22;48368;53.406;6.214;2023-05-14T07:40:35;14.70;99.90
62339;DHT22;48368;53.406;6.214;2023-05-14T07:43:01;14.80;99.90
62339;DHT22;48368;53.406;6.214;2023-05-14T07:45:26;14.80;99.90
62339;DHT22;48368;53.406;6.214;2023-05-14T07:47:52;14.90;99.90
62339;DHT22;48368;53.406;6.214;2023-05-14T07:50:18;15.00;99.90
62339;DHT22;48368;53.406;6.214;2023-05-14T07:52:44;15.20;99.90
62339;DHT22;48368;53.406;6.214;2023-05-14T07:55:10;15.20;99.90
62339;DHT22;48368;53.406;6.214;2023-05-14T07:57:36;15.40;99.90
62339;DHT22;48368;53.406;6.214;2023-05-14T08:00:03;15.50;99.90
62339;DHT22;48368;53.406;6.214;2023-05-14T08:02:29;15.60;99.90
62339;DHT22;48368;53.406;6.214;2023-05-14T08:04:54;15.60;99.90
62339;DHT22;48368;53.406;6.214;2023-05-14T08:07:20;15.60;99.90
62339;DHT22;48368;53.406;6.214;2023-05-14T08:09:46;15.80;99.90
62339;DHT22;48368;53.406;6.214;2023-05-14T08:12:11;15.90;99.90
62339;DHT22;48368;53.406;6.214;2023-05-14T08:14:37;16.00;99.90
62339;DHT22;48368;53.406;6.214;2023-05-14T08:17:03;16.00;99.90
62339;DHT22;48368;53.406;6.214;2023-05-14T08:19:29;16.10;99.90
62339;DHT22;48368;53.406;6.214;2023-05-14T08:21:54;16.10;99.90
62339;DHT22;48368;53.406;6.214;2023-05-14T08:24:20;16.10;99.90
62339;DHT22;48368;53.406;6.214;2023-05-14T08:26:46;16.30;99.90
62339;DHT22;48368;53.406;6.214;2023-05-14T08:29:12;16.40;99.90
62339;DHT22;48368;53.406;6.214;2023-05-14T08:31:37;16.50;99.90
62339;DHT22;48368;53.406;6.214;2023-05-14T08:34:03;16.50;99.90
62339;DHT22;48368;53.406;6.214;2023-05-14T08:36:28;16.60;99.90
62339;DHT22;48368;53.406;6.214;2023-05-14T08:38:54;16.80;99.90
62339;DHT22;48368;53.406;6.214;2023-05-14T08:41:20;17.00;99.90
62339;DHT22;48368;53.406;6.214;2023-05-14T08:43:56;17.10;99.90
62339;DHT22;48368;53.406;6.214;2023-05-14T08:46:27;16.80;99.90
62339;DHT22;48368;53.406;6.214;2023-05-14T08:48:59;16.50;99.90
62339;DHT22;48368;53.406;6.214;2023-05-14T08:51:29;16.80;99.90
62339;DHT22;48368;53.406;6.214;2023-05-14T08:53:58;16.90;99.90
62339;DHT22;48368;53.406;6.214;2023-05-14T08:56:26;16.80;99.90
62339;DHT22;48368;53.406;6.214;2023-05-14T08:58:53;16.60;99.90
62339;DHT22;48368;53.406;6.214;2023-05-14T09:01:18;16.60;99.90
62339;DHT22;48368;53.406;6.214;2023-05-14T09:03:45;16.70;99.90
62339;DHT22;48368;53.406;6.214;2023-05-14T09:06:13;16.60;99.90
62339;DHT22;48368;53.406;6.214;2023-05-14T09:08:39;16.80;99.90
62339;DHT22;48368;53.406;6.214;2023-05-14T09:11:04;16.90;99.90
62339;DHT22;48368;53.406;6.214;2023-05-14T09:13:31;16.90;99.90
62339;DHT22;48368;53.406;6.214;2023-05-14T09:15:57;17.00;99.90
62339;DHT22;48368;53.406;6.214;2023-05-14T09:18:24;17.10;99.90
62339;DHT22;48368;53.406;6.214;2023-05-14T09:20:50;17.30;99.90
62339;DHT22;48368;53.406;6.214;2023-05-14T09:23:16;17.50;99.90
62339;DHT22;48368;53.406;6.214;2023-05-14T09:25:42;17.50;99.90
62339;DHT22;48368;53.406;6.214;2023-05-14T09:28:08;17.40;99.90
62339;DHT22;48368;53.406;6.214;2023-05-14T09:30:34;17.50;99.90
62339;DHT22;48368;53.406;6.214;2023-05-14T09:33:01;17.60;99.90
62339;DHT22;48368;53.406;6.214;2023-05-14T09:35:28;17.40;99.90
62339;DHT22;48368;53.406;6.214;2023-05-14T09:37:54;17.30;99.90
62339;DHT22;48368;53.406;6.214;2023-05-14T09:40:21;17.50;99.90
62339;DHT22;48368;53.406;6.214;2023-05-14T09:42:47;17.60;99.90
62339;DHT22;48368;53.406;6.214;2023-05-14T09:45:14;17.50;99.90
62339;DHT22;48368;53.406;6.214;2023-05-14T09:47:40;17.50;99.90
62339;DHT22;48368;53.406;6.214;2023-05-14T09:50:06;17.50;99.90
62339;DHT22;48368;53.406;6.214;2023-05-14T09:52:32;17.70;99.90
62339;DHT22;48368;53.406;6.214;2023-05-14T09:54:59;17.90;99.90
62339;DHT22;48368;53.406;6.214;2023-05-14T09:57:24;17.60;99.90
62339;DHT22;48368;53.406;6.214;2023-05-14T09:59:51;17.70;99.90
62339;DHT22;48368;53.406;6.214;2023-05-14T10:02:25;17.60;99.90
62339;DHT22;48368;53.406;6.214;2023-05-14T10:04:53;17.70;99.90
62339;DHT22;48368;53.406;6.214;2023-05-14T10:07:25;17.30;99.90
62339;DHT22;48368;53.406;6.214;2023-05-14T10:09:58;17.30;99.90
62339;DHT22;48368;53.406;6.214;2023-05-14T10:12:28;17.30;99.90
62339;DHT22;48368;53.406;6.214;2023-05-14T10:14:56;17.20;99.90
62339;DHT22;48368;53.406;6.214;2023-05-14T10:17:30;17.50;99.90
62339;DHT22;48368;53.406;6.214;2023-05-14T10:19:57;17.60;99.90
62339;DHT22;48368;53.406;6.214;2023-05-14T10:22:26;17.70;99.90
62339;DHT22;48368;53.406;6.214;2023-05-14T10:24:55;17.40;99.90
62339;DHT22;48368;53.406;6.214;2023-05-14T10:27:21;17.20;99.90
62339;DHT22;48368;53.406;6.214;2023-05-14T10:29:53;17.30;99.90
62339;DHT22;48368;53.406;6.214;2023-05-14T10:32:23;17.80;99.90
62339;DHT22;48368;53.406;6.214;2023-05-14T10:34:51;17.70;99.90
62339;DHT22;48368;53.406;6.214;2023-05-14T10:37:29;17.70;99.90
62339;DHT22;48368;53.406;6.214;2023-05-14T10:40:01;17.80;99.90
62339;DHT22;48368;53.406;6.214;2023-05-14T10:42:34;18.00;99.90
62339;DHT22;48368;53.406;6.214;2023-05-14T10:45:11;18.40;99.90
62339;DHT22;48368;53.406;6.214;2023-05-14T10:47:38;18.10;99.90
62339;DHT22;48368;53.406;6.214;2023-05-14T10:50:06;18.10;99.90
62339;DHT22;48368;53.406;6.214;2023-05-14T10:52:33;17.90;99.90
62339;DHT22;48368;53.406;6.214;2023-05-14T10:55:01;18.10;99.90
62339;DHT22;48368;53.406;6.214;2023-05-14T10:57:29;18.00;99.90
62339;DHT22;48368;53.406;6.214;2023-05-14T10:59:58;18.20;99.90
62339;DHT22;48368;53.406;6.214;2023-05-14T11:02:27;18.40;99.90
62339;DHT22;48368;53.406;6.214;2023-05-14T11:08:06;18.10;99.90
62339;DHT22;48368;53.406;6.214;2023-05-14T11:10:26;18.20;99.90
62339;DHT22;48368;53.406;6.214;2023-05-14T11:12:55;18.20;99.90
62339;DHT22;48368;53.406;6.214;2023-05-14T11:15:23;18.20;99.90
62339;DHT22;48368;53.406;6.214;2023-05-14T11:17:49;18.70;99.90
62339;DHT22;48368;53.406;6.214;2023-05-14T11:20:16;18.80;99.90
62339;DHT22;48368;53.406;6.214;2023-05-14T11:22:43;18.80;99.90
62339;DHT22;48368;53.406;6.214;2023-05-14T11:25:10;19.00;99.90
62339;DHT22;48368;53.406;6.214;2023-05-14T11:27:39;19.30;99.90
62339;DHT22;48368;53.406;6.214;2023-05-14T11:30:25;18.70;99.90
62339;DHT22;48368;53.406;6.214;2023-05-14T11:32:51;18.70;99.90
62339;DHT22;48368;53.406;6.214;2023-05-14T11:35:18;19.30;99.90
62339;DHT22;48368;53.406;6.214;2023-05-14T11:37:51;19.10;99.90
62339;DHT22;48368;53.406;6.214;2023-05-14T11:40:16;19.10;99.90
62339;DHT22;48368;53.406;6.214;2023-05-14T11:42:42;18.90;99.90
62339;DHT22;48368;53.406;6.214;2023-05-14T11:45:22;18.90;99.90
62339;DHT22;48368;53.406;6.214;2023-05-14T11:47:48;19.20;99.90
62339;DHT22;48368;53.406;6.214;2023-05-14T11:50:15;19.10;99.90
62339;DHT22;48368;53.406;6.214;2023-05-14T11:52:41;19.40;99.90
62339;DHT22;48368;53.406;6.214;2023-05-14T11:55:12;19.70;99.90
62339;DHT22;48368;53.406;6.214;2023-05-14T11:57:38;19.60;99.90
62339;DHT22;48368;53.406;6.214;2023-05-14T12:00:09;19.60;99.90
62339;DHT22;48368;53.406;6.214;2023-05-14T12:02:38;19.70;99.90
62339;DHT22;48368;53.406;6.214;2023-05-14T12:05:05;19.70;99.90
62339;DHT22;48368;53.406;6.214;2023-05-14T12:07:35;19.60;99.90
62339;DHT22;48368;53.406;6.214;2023-05-14T12:10:02;19.70;99.90
62339;DHT22;48368;53.406;6.214;2023-05-14T12:12:34;19.90;99.90
62339;DHT22;48368;53.406;6.214;2023-05-14T12:15:00;20.00;99.90
62339;DHT22;48368;53.406;6.214;2023-05-14T12:17:26;20.10;99.90
62339;DHT22;48368;53.406;6.214;2023-05-14T12:19:52;19.90;99.90
62339;DHT22;48368;53.406;6.214;2023-05-14T12:22:20;20.00;99.90
62339;DHT22;48368;53.406;6.214;2023-05-14T12:24:57;20.10;99.90
62339;DHT22;48368;53.406;6.214;2023-05-14T12:27:27;20.20;99.90
62339;DHT22;48368;53.406;6.214;2023-05-14T12:30:04;20.10;99.90
62339;DHT22;48368;53.406;6.214;2023-05-14T12:32:34;19.90;99.90
62339;DHT22;48368;53.406;6.214;2023-05-14T12:35:00;20.10;99.90
62339;DHT22;48368;53.406;6.214;2023-05-14T12:37:26;19.70;99.90
62339;DHT22;48368;53.406;6.214;2023-05-14T12:39:53;19.70;99.90
62339;DHT22;48368;53.406;6.214;2023-05-14T12:42:19;20.00;99.90
62339;DHT22;48368;53.406;6.214;2023-05-14T12:44:45;20.00;99.90
62339;DHT22;48368;53.406;6.214;2023-05-14T12:47:11;19.90;99.90
62339;DHT22;48368;53.406;6.214;2023-05-14T12:49:36;20.10;99.90
62339;DHT22;48368;53.406;6.214;2023-05-14T12:52:02;20.00;99.90
62339;DHT22;48368;53.406;6.214;2023-05-14T12:54:28;19.70;99.90
62339;DHT22;48368;53.406;6.214;2023-05-14T12:56:56;19.70;99.90
62339;DHT22;48368;53.406;6.214;2023-05-14T12:59:22;19.80;99.90
62339;DHT22;48368;53.406;6.214;2023-05-14T13:01:47;19.60;99.90
62339;DHT22;48368;53.406;6.214;2023-05-14T13:04:13;19.20;99.90
62339;DHT22;48368;53.406;6.214;2023-05-14T13:06:39;19.10;99.90
62339;DHT22;48368;53.406;6.214;2023-05-14T13:09:07;18.70;99.90
62339;DHT22;48368;53.406;6.214;2023-05-14T13:11:33;18.60;99.90
62339;DHT22;48368;53.406;6.214;2023-05-14T13:14:01;18.70;99.90
62339;DHT22;48368;53.406;6.214;2023-05-14T13:16:27;18.90;99.90
62339;DHT22;48368;53.406;6.214;2023-05-14T13:18:53;18.90;99.90
62339;DHT22;48368;53.406;6.214;2023-05-14T13:21:19;19.20;99.90
62339;DHT22;48368;53.406;6.214;2023-05-14T13:23:45;18.50;99.90
62339;DHT22;48368;53.406;6.214;2023-05-14T13:26:11;18.50;99.90
62339;DHT22;48368;53.406;6.214;2023-05-14T13:28:36;18.60;99.90
62339;DHT22;48368;53.406;6.214;2023-05-14T13:31:04;18.80;99.90
62339;DHT22;48368;53.406;6.214;2023-05-14T13:33:33;18.90;99.90
62339;DHT22;48368;53.406;6.214;2023-05-14T13:36:00;19.10;99.90
62339;DHT22;48368;53.406;6.214;2023-05-14T13:38:26;19.30;99.90
62339;DHT22;48368;53.406;6.214;2023-05-14T13:40:52;19.30;99.90
62339;DHT22;48368;53.406;6.214;2023-05-14T13:43:18;19.20;99.90
62339;DHT22;48368;53.406;6.214;2023-05-14T13:45:44;19.40;99.90
62339;DHT22;48368;53.406;6.214;2023-05-14T13:48:10;19.30;99.90
62339;DHT22;48368;53.406;6.214;2023-05-14T13:50:35;19.30;99.90
62339;DHT22;48368;53.406;6.214;2023-05-14T13:53:01;19.30;99.90
62339;DHT22;48368;53.406;6.214;2023-05-14T13:55:27;19.20;99.90
62339;DHT22;48368;53.406;6.214;2023-05-14T13:57:52;19.40;99.90
62339;DHT22;48368;53.406;6.214;2023-05-14T14:00:18;19.50;99.90
62339;DHT22;48368;53.406;6.214;2023-05-14T14:02:44;19.60;99.90
62339;DHT22;48368;53.406;6.214;2023-05-14T14:05:09;19.60;99.90
62339;DHT22;48368;53.406;6.214;2023-05-14T14:07:35;19.30;99.90
62339;DHT22;48368;53.406;6.214;2023-05-14T14:10:01;19.40;99.90
62339;DHT22;48368;53.406;6.214;2023-05-14T14:12:26;19.40;99.90
62339;DHT22;48368;53.406;6.214;2023-05-14T14:14:52;19.40;99.90
62339;DHT22;48368;53.406;6.214;2023-05-14T14:17:18;19.50;99.90
62339;DHT22;48368;53.406;6.214;2023-05-14T14:19:43;19.60;99.90
62339;DHT22;48368;53.406;6.214;2023-05-14T14:22:09;19.30;99.90
62339;DHT22;48368;53.406;6.214;2023-05-14T14:24:36;19.40;99.90
62339;DHT22;48368;53.406;6.214;2023-05-14T14:27:02;19.30;99.90
62339;DHT22;48368;53.406;6.214;2023-05-14T14:29:28;19.10;99.90
62339;DHT22;48368;53.406;6.214;2023-05-14T14:31:55;19.20;99.90
62339;DHT22;48368;53.406;6.214;2023-05-14T14:34:21;19.20;99.90
62339;DHT22;48368;53.406;6.214;2023-05-14T14:36:47;19.10;99.90
62339;DHT22;48368;53.406;6.214;2023-05-14T14:39:12;18.90;99.90
62339;DHT22;48368;53.406;6.214;2023-05-14T14:41:38;18.90;99.90
62339;DHT22;48368;53.406;6.214;2023-05-14T14:44:04;18.90;99.90
62339;DHT22;48368;53.406;6.214;2023-05-14T14:46:30;18.70;99.90
62339;DHT22;48368;53.406;6.214;2023-05-14T14:48:56;18.60;99.90
62339;DHT22;48368;53.406;6.214;2023-05-14T14:51:22;18.80;99.90
62339;DHT22;48368;53.406;6.214;2023-05-14T14:53:47;18.90;99.90
62339;DHT22;48368;53.406;6.214;2023-05-14T14:56:13;18.70;99.90
62339;DHT22;48368;53.406;6.214;2023-05-14T14:58:39;18.60;99.90
62339;DHT22;48368;53.406;6.214;2023-05-14T15:01:04;18.60;99.90
62339;DHT22;48368;53.406;6.214;2023-05-14T15:03:30;18.70;99.90
62339;DHT22;48368;53.406;6.214;2023-05-14T15:05:56;18.70;99.90
62339;DHT22;48368;53.406;6.214;2023-05-14T15:08:24;18.70;99.90
62339;DHT22;48368;53.406;6.214;2023-05-14T15:10:51;18.80;99.90
62339;DHT22;48368;53.406;6.214;2023-05-14T15:13:17;18.50;99.90
62339;DHT22;48368;53.406;6.214;2023-05-14T15:15:43;18.50;99.90
62339;DHT22;48368;53.406;6.214;2023-05-14T15:18:09;18.50;99.90
62339;DHT22;48368;53.406;6.214;2023-05-14T15:20:34;18.50;99.90
62339;DHT22;48368;53.406;6.214;2023-05-14T15:23:00;18.70;99.90
62339;DHT22;48368;53.406;6.214;2023-05-14T15:25:26;18.70;99.90
62339;DHT22;48368;53.406;6.214;2023-05-14T15:27:52;18.70;99.90
62339;DHT22;48368;53.406;6.214;2023-05-14T15:30:17;18.60;99.90
62339;DHT22;48368;53.406;6.214;2023-05-14T15:32:45;18.70;99.90